createdAt,value
2023-06-18T00:02:03.814Z,14.20
2023-06-18T00:04:35.152Z,14.19
2023-06-18T00:07:06.702Z,14.15
2023-06-18T00:09:38.296Z,14.11
2023-06-18T00:12:09.973Z,14.06
2023-06-18T00:14:41.355Z,14.04
2023-06-18T00:17:12.752Z,14.01
2023-06-18T00:19:44.070Z,13.99
2023-06-18T00:22:16.436Z,13.95
2023-06-18T00:24:47.768Z,13.84
2023-06-18T00:27:21.186Z,13.78
2023-06-18T00:29:53.036Z,13.86
2023-06-18T00:32:24.383Z,13.84
2023-06-18T00:34:55.710Z,13.84
2023-06-18T00:37:28.827Z,13.81
2023-06-18T00:40:00.231Z,13.70
2023-06-18T00:42:31.651Z,13.72
2023-06-18T00:45:04.382Z,13.69
2023-06-18T00:47:45.513Z,13.66
2023-06-18T00:50:18.615Z,13.61
2023-06-18T00:52:50.997Z,13.56
2023-06-18T00:55:22.840Z,13.45
2023-06-18T00:58:00.788Z,13.53
2023-06-18T01:00:35.566Z,13.46
2023-06-18T01:03:19.082Z,13.43
2023-06-18T01:05:55.199Z,13.37
2023-06-18T01:08:29.182Z,13.33
2023-06-18T01:11:03.255Z,13.38
2023-06-18T01:13:37.684Z,13.35
2023-06-18T01:16:09.933Z,13.30
2023-06-18T01:18:46.434Z,13.26
2023-06-18T01:21:21.590Z,13.22
2023-06-18T01:23:54.050Z,13.17
2023-06-18T01:26:27.542Z,13.14
2023-06-18T01:29:00.134Z,13.00
2023-06-18T01:31:40.234Z,13.09
2023-06-18T01:34:11.534Z,13.07
2023-06-18T01:37:25.927Z,13.06
2023-06-18T01:40:32.711Z,13.06
2023-06-18T01:43:22.308Z,12.94
2023-06-18T01:45:58.881Z,13.01
2023-06-18T01:48:36.595Z,12.99
2023-06-18T01:51:08.720Z,12.80
2023-06-18T01:53:41.948Z,12.68
2023-06-18T01:56:14.473Z,12.75
2023-06-18T01:58:46.084Z,12.70
2023-06-18T02:01:18.053Z,12.71
2023-06-18T02:03:49.582Z,12.52
2023-06-18T02:06:21.138Z,12.57
2023-06-18T02:08:52.516Z,12.52
2023-06-18T02:11:24.436Z,12.62
2023-06-18T02:13:55.785Z,12.66
2023-06-18T02:16:27.257Z,12.69
2023-06-18T02:18:58.697Z,12.66
2023-06-18T02:21:30.127Z,12.51
2023-06-18T02:24:01.475Z,12.49
2023-06-18T02:26:32.889Z,12.51
2023-06-18T02:29:04.273Z,12.39
2023-06-18T02:31:36.036Z,12.55
2023-06-18T02:34:07.408Z,12.51
2023-06-18T02:36:39.905Z,11.78
2023-06-18T02:39:11.497Z,12.33
2023-06-18T02:41:42.852Z,12.39
2023-06-18T02:44:14.257Z,12.47
2023-06-18T02:46:45.587Z,12.24
2023-06-18T02:49:16.994Z,12.23
2023-06-18T02:51:49.184Z,12.46
2023-06-18T02:54:21.393Z,12.33
2023-06-18T02:56:52.766Z,12.37
2023-06-18T02:59:24.249Z,12.36
2023-06-18T03:01:55.612Z,12.31
2023-06-18T03:04:26.945Z,12.34
2023-06-18T03:07:01.747Z,12.27
2023-06-18T03:09:33.061Z,12.32
2023-06-18T03:12:05.106Z,12.41
2023-06-18T03:14:36.454Z,12.48
2023-06-18T03:17:07.894Z,12.50
2023-06-18T03:19:39.511Z,12.37
2023-06-18T03:22:11.262Z,12.49
2023-06-18T03:24:42.808Z,12.62
2023-06-18T03:27:14.243Z,12.65
2023-06-18T03:29:46.110Z,12.59
2023-06-18T03:32:17.602Z,12.73
2023-06-18T03:34:49.758Z,12.78
2023-06-18T03:37:21.624Z,12.84
2023-06-18T03:39:52.989Z,12.85
2023-06-18T03:42:25.023Z,12.82
2023-06-18T03:44:56.384Z,12.83
2023-06-18T03:47:27.857Z,12.87
2023-06-18T03:49:59.277Z,12.98
2023-06-18T03:52:30.654Z,13.08
2023-06-18T03:55:02.211Z,13.17
2023-06-18T03:57:33.601Z,13.27
2023-06-18T04:00:10.060Z,13.39
2023-06-18T04:02:41.969Z,13.46
2023-06-18T04:05:13.544Z,13.61
2023-06-18T04:07:44.916Z,13.68
2023-06-18T04:10:16.263Z,13.83
2023-06-18T04:12:47.591Z,13.96
2023-06-18T04:15:18.950Z,14.03
2023-06-18T04:17:50.348Z,13.99
2023-06-18T04:20:22.253Z,14.14
2023-06-18T04:22:53.740Z,14.25
2023-06-18T04:25:25.077Z,14.28
2023-06-18T04:27:56.873Z,14.47
2023-06-18T04:30:28.277Z,14.60
2023-06-18T04:32:59.644Z,14.66
2023-06-18T04:35:31.625Z,14.74
2023-06-18T04:38:02.975Z,14.87
2023-06-18T04:40:34.325Z,15.02
2023-06-18T04:43:05.965Z,15.15
2023-06-18T04:45:38.498Z,15.27
2023-06-18T04:48:10.177Z,15.42
2023-06-18T04:50:42.340Z,15.46
2023-06-18T04:53:13.648Z,15.69
2023-06-18T04:55:45.138Z,15.83
2023-06-18T04:58:16.561Z,15.89
2023-06-18T05:00:47.983Z,16.05
2023-06-18T05:03:19.463Z,16.24
2023-06-18T05:05:50.974Z,16.34
2023-06-18T05:08:22.443Z,16.51
2023-06-18T05:10:53.835Z,16.75
2023-06-18T05:13:25.170Z,16.87
2023-06-18T05:15:56.518Z,17.05
2023-06-18T05:18:27.850Z,17.20
2023-06-18T05:20:59.188Z,17.34
2023-06-18T05:23:30.661Z,17.47
2023-06-18T05:26:02.150Z,17.54
2023-06-18T05:28:33.479Z,17.69
2023-06-18T05:31:04.810Z,17.83
2023-06-18T05:33:36.157Z,18.00
2023-06-18T05:36:07.751Z,18.13
2023-06-18T05:38:39.156Z,18.19
2023-06-18T05:41:10.579Z,18.45
2023-06-18T05:43:41.884Z,18.64
2023-06-18T05:46:13.301Z,18.66
2023-06-18T05:48:44.665Z,18.99
2023-06-18T05:51:16.657Z,20.66
2023-06-18T05:53:48.009Z,22.85
2023-06-18T05:56:19.337Z,24.68
2023-06-18T05:58:50.658Z,26.33
2023-06-18T06:01:22.050Z,27.66
2023-06-18T06:03:53.524Z,28.48
2023-06-18T06:06:24.897Z,28.98
2023-06-18T06:08:56.524Z,29.53
2023-06-18T06:11:27.903Z,30.09
2023-06-18T06:13:59.776Z,30.70
2023-06-18T06:16:31.223Z,31.19
2023-06-18T06:19:02.690Z,31.40
2023-06-18T06:21:34.994Z,31.55
2023-06-18T06:24:07.196Z,31.35
2023-06-18T06:26:38.595Z,31.01
2023-06-18T06:29:10.063Z,30.56
2023-06-18T06:31:41.641Z,30.63
2023-06-18T06:34:12.951Z,30.95
2023-06-18T06:36:44.465Z,31.38
2023-06-18T06:39:17.590Z,31.69
2023-06-18T06:41:48.971Z,32.12
2023-06-18T06:44:20.461Z,32.36
2023-06-18T06:46:51.837Z,32.54
2023-06-18T06:49:23.153Z,32.60
2023-06-18T06:51:56.469Z,32.31
2023-06-18T06:54:27.888Z,31.79
2023-06-18T06:56:59.249Z,31.13
2023-06-18T06:59:31.824Z,30.49
2023-06-18T07:02:03.419Z,29.92
2023-06-18T07:04:34.781Z,29.42
2023-06-18T07:07:06.156Z,28.79
2023-06-18T07:09:37.469Z,28.50
2023-06-18T07:12:09.146Z,28.21
2023-06-18T07:14:40.671Z,27.87
2023-06-18T07:17:12.107Z,27.52
2023-06-18T07:19:43.470Z,27.30
2023-06-18T07:22:14.801Z,27.16
2023-06-18T07:24:46.122Z,27.15
2023-06-18T07:27:17.540Z,26.73
2023-06-18T07:29:48.876Z,26.80
2023-06-18T07:32:20.248Z,26.65
2023-06-18T07:34:51.725Z,26.59
2023-06-18T07:37:23.054Z,26.69
2023-06-18T07:39:55.992Z,26.98
2023-06-18T07:42:27.358Z,27.17
2023-06-18T07:44:58.787Z,27.47
2023-06-18T07:47:30.144Z,27.74
2023-06-18T07:50:03.018Z,27.86
2023-06-18T07:52:35.099Z,27.66
2023-06-18T07:55:07.038Z,27.56
2023-06-18T07:57:39.098Z,27.38
2023-06-18T08:00:11.368Z,27.37
2023-06-18T08:02:42.802Z,27.30
2023-06-18T08:05:14.256Z,27.13
2023-06-18T08:07:45.734Z,27.25
2023-06-18T08:10:17.122Z,27.25
2023-06-18T08:12:48.475Z,27.45
2023-06-18T08:15:19.822Z,27.40
2023-06-18T08:17:51.196Z,27.34
2023-06-18T08:20:22.720Z,27.23
2023-06-18T08:22:54.237Z,27.38
2023-06-18T08:25:25.583Z,27.53
2023-06-18T08:27:57.595Z,27.53
2023-06-18T08:30:29.062Z,27.64
2023-06-18T08:33:00.567Z,27.78
2023-06-18T08:35:32.017Z,27.73
2023-06-18T08:38:04.320Z,27.77
2023-06-18T08:40:49.446Z,27.86
2023-06-18T08:43:27.241Z,28.08
2023-06-18T08:46:04.751Z,28.19
2023-06-18T08:48:43.538Z,28.34
2023-06-18T08:51:17.147Z,28.24
2023-06-18T08:53:55.153Z,28.24
2023-06-18T08:56:28.334Z,28.23
2023-06-18T08:59:02.266Z,28.37
2023-06-18T09:01:33.875Z,28.28
2023-06-18T09:04:06.363Z,28.48
2023-06-18T09:06:38.069Z,28.48
2023-06-18T09:09:09.493Z,28.64
2023-06-18T09:11:40.879Z,29.08
2023-06-18T09:14:12.285Z,29.39
2023-06-18T09:16:44.237Z,29.46
2023-06-18T09:19:17.205Z,29.37
2023-06-18T09:21:48.721Z,29.34
2023-06-18T09:24:24.472Z,29.40
2023-06-18T09:27:04.227Z,29.26
2023-06-18T09:29:41.628Z,29.04
2023-06-18T09:32:15.198Z,28.96
2023-06-18T09:34:46.677Z,28.98
2023-06-18T09:37:20.492Z,29.11
2023-06-18T09:39:54.625Z,29.17
2023-06-18T09:42:30.867Z,29.18
2023-06-18T09:45:02.292Z,29.22
2023-06-18T09:47:33.652Z,29.30
2023-06-18T09:50:06.712Z,29.54
2023-06-18T09:52:46.074Z,29.77
2023-06-18T09:55:32.327Z,30.06
2023-06-18T09:58:03.776Z,30.26
2023-06-18T10:00:35.113Z,30.29
2023-06-18T10:03:08.477Z,30.37
2023-06-18T10:05:40.393Z,30.13
2023-06-18T10:08:12.010Z,30.00
2023-06-18T10:10:43.922Z,30.20
2023-06-18T10:13:15.381Z,30.27
2023-06-18T10:15:46.965Z,30.33
2023-06-18T10:18:24.056Z,30.51
2023-06-18T10:21:01.901Z,30.43
2023-06-18T10:23:34.373Z,30.11
2023-06-18T10:26:08.994Z,30.20
2023-06-18T10:28:41.625Z,30.30
2023-06-18T10:31:13.218Z,30.13
2023-06-18T10:33:46.162Z,30.14
2023-06-18T10:36:17.862Z,30.24
2023-06-18T10:38:49.955Z,30.36
2023-06-18T10:41:21.659Z,30.47
2023-06-18T10:43:55.637Z,30.30
2023-06-18T10:46:27.681Z,30.19
2023-06-18T10:49:16.143Z,30.06
2023-06-18T10:52:15.246Z,29.91
2023-06-18T10:54:46.573Z,30.02
2023-06-18T10:57:18.057Z,30.25
2023-06-18T10:59:50.962Z,30.26
2023-06-18T11:02:35.106Z,30.24
2023-06-18T11:05:06.766Z,30.10
2023-06-18T11:07:40.897Z,30.30
2023-06-18T11:10:12.438Z,30.44
2023-06-18T11:12:44.867Z,30.65
2023-06-18T11:15:18.394Z,30.86
2023-06-18T11:17:55.232Z,30.99
2023-06-18T11:20:27.572Z,31.04
2023-06-18T11:23:01.247Z,31.08
2023-06-18T11:25:32.725Z,31.13
2023-06-18T11:28:06.070Z,31.10
2023-06-18T11:30:38.481Z,31.05
2023-06-18T11:33:09.872Z,31.16
2023-06-18T11:35:41.332Z,31.30
2023-06-18T11:38:12.910Z,31.31
2023-06-18T11:40:55.778Z,31.32
2023-06-18T11:43:27.175Z,31.46
2023-06-18T11:45:58.951Z,31.47
2023-06-18T11:48:34.161Z,31.48
2023-06-18T11:51:05.506Z,31.65
2023-06-18T11:53:36.868Z,31.63
2023-06-18T11:56:08.334Z,31.46
2023-06-18T11:58:39.974Z,31.43
2023-06-18T12:01:17.274Z,31.48
2023-06-18T12:16:36.282Z,31.70
2023-06-18T12:19:16.075Z,31.48
2023-06-18T12:21:53.971Z,31.81
2023-06-18T12:24:29.834Z,31.71
2023-06-18T12:27:05.575Z,31.90
2023-06-18T12:29:41.630Z,31.60
2023-06-18T12:32:13.562Z,32.15
2023-06-18T12:34:44.893Z,32.41
2023-06-18T12:37:16.249Z,32.59
2023-06-18T12:40:10.924Z,32.65
2023-06-18T12:42:43.399Z,32.87
2023-06-18T12:45:25.735Z,32.77
2023-06-18T12:47:58.598Z,32.75
2023-06-18T12:50:39.082Z,32.97
2023-06-18T12:53:19.146Z,33.03
2023-06-18T12:55:54.319Z,33.19
2023-06-18T12:58:28.294Z,33.35
2023-06-18T13:01:00.400Z,33.62
2023-06-18T13:03:32.489Z,33.62
2023-06-18T13:06:04.037Z,33.51
2023-06-18T13:08:36.061Z,33.51
2023-06-18T13:11:07.406Z,33.64
2023-06-18T13:13:38.816Z,33.72
2023-06-18T13:16:10.581Z,33.64
2023-06-18T13:18:42.528Z,33.57
2023-06-18T13:21:14.215Z,33.69
2023-06-18T13:23:46.270Z,33.57
2023-06-18T13:26:19.797Z,33.71
2023-06-18T13:28:51.548Z,33.54
2023-06-18T13:31:22.918Z,33.49
2023-06-18T13:33:54.292Z,33.53
2023-06-18T13:36:25.755Z,33.67
2023-06-18T13:38:57.418Z,33.81
2023-06-18T13:41:28.757Z,34.05
2023-06-18T13:44:00.139Z,33.69
2023-06-18T13:46:31.785Z,33.25
2023-06-18T13:49:04.143Z,33.20
2023-06-18T13:51:35.565Z,33.00
2023-06-18T13:54:07.261Z,32.86
2023-06-18T13:56:38.696Z,32.85
2023-06-18T13:59:10.125Z,32.98
2023-06-18T14:01:42.131Z,33.28
2023-06-18T14:04:13.611Z,33.52
2023-06-18T14:06:45.563Z,33.59
2023-06-18T14:09:19.258Z,33.54
2023-06-18T14:11:51.551Z,33.67
2023-06-18T14:14:23.476Z,33.65
2023-06-18T14:16:54.797Z,33.78
2023-06-18T14:19:26.232Z,33.79
2023-06-18T14:21:58.656Z,33.78
2023-06-18T14:24:30.249Z,33.40
2023-06-18T14:27:03.298Z,33.42
2023-06-18T14:29:34.687Z,33.39
2023-06-18T14:32:06.083Z,33.58
2023-06-18T14:34:37.402Z,33.44
2023-06-18T14:37:09.297Z,33.42
2023-06-18T14:39:40.759Z,33.29
2023-06-18T14:42:12.096Z,33.39
2023-06-18T14:44:43.822Z,33.53
2023-06-18T14:47:15.162Z,33.60
2023-06-18T14:49:54.021Z,33.67
2023-06-18T14:52:25.349Z,33.60
2023-06-18T14:54:56.675Z,33.41
2023-06-18T14:57:28.116Z,33.42
2023-06-18T14:59:59.611Z,33.76
2023-06-18T15:02:30.980Z,33.93
2023-06-18T15:05:02.702Z,34.01
2023-06-18T15:07:34.570Z,33.94
2023-06-18T15:10:06.371Z,33.90
2023-06-18T15:12:37.776Z,33.85
2023-06-18T15:15:09.569Z,33.56
2023-06-18T15:17:41.370Z,33.08
2023-06-18T15:20:14.937Z,32.69
2023-06-18T15:22:46.264Z,32.59
2023-06-18T15:25:17.795Z,32.33
2023-06-18T15:27:49.108Z,32.21
2023-06-18T15:30:20.554Z,32.16
2023-06-18T15:32:51.980Z,32.08
2023-06-18T15:35:23.549Z,32.35
2023-06-18T15:38:01.004Z,32.65
2023-06-18T15:40:32.354Z,32.87
2023-06-18T15:43:03.676Z,32.89
2023-06-18T15:45:35.010Z,32.85
2023-06-18T15:48:06.412Z,32.83
2023-06-18T15:50:37.770Z,32.83
2023-06-18T15:53:09.133Z,32.73
2023-06-18T15:55:40.669Z,32.68
2023-06-18T15:58:12.001Z,32.70
2023-06-18T16:00:43.358Z,32.68
2023-06-18T16:03:14.748Z,32.68
2023-06-18T16:05:46.312Z,32.74
2023-06-18T16:08:17.709Z,32.50
2023-06-18T16:10:49.263Z,32.39
2023-06-18T16:13:22.240Z,32.34
2023-06-18T16:15:53.633Z,32.25
2023-06-18T16:18:24.987Z,32.13
2023-06-18T16:20:56.530Z,32.11
2023-06-18T16:23:27.851Z,32.10
2023-06-18T16:25:59.632Z,32.01
2023-06-18T16:28:32.420Z,31.99
2023-06-18T16:31:03.753Z,31.80
2023-06-18T16:33:35.088Z,31.66
2023-06-18T16:36:06.677Z,31.55
2023-06-18T16:38:38.304Z,31.56
2023-06-18T16:41:09.893Z,31.42
2023-06-18T16:43:41.280Z,31.36
2023-06-18T16:46:12.811Z,31.25
2023-06-18T16:48:44.310Z,31.18
2023-06-18T16:51:15.744Z,30.99
2023-06-18T16:53:47.062Z,30.83
2023-06-18T16:56:18.374Z,30.79
2023-06-18T16:58:50.538Z,30.70
2023-06-18T17:01:22.014Z,30.66
2023-06-18T17:03:53.605Z,30.58
2023-06-18T17:06:25.054Z,30.57
2023-06-18T17:08:56.353Z,30.44
2023-06-18T17:11:28.995Z,30.34
2023-06-18T17:14:01.526Z,30.33
2023-06-18T17:16:32.985Z,30.15
2023-06-18T17:19:04.316Z,30.13
2023-06-18T17:21:36.160Z,30.09
2023-06-18T17:24:07.602Z,30.04
2023-06-18T17:26:39.010Z,30.07
2023-06-18T17:29:10.797Z,30.04
2023-06-18T17:31:42.164Z,30.00
2023-06-18T17:34:15.585Z,29.98
2023-06-18T17:36:48.103Z,30.03
2023-06-18T17:39:20.958Z,30.01
2023-06-18T17:41:52.520Z,29.99
2023-06-18T17:44:23.961Z,29.96
2023-06-18T17:46:55.374Z,29.91
2023-06-18T17:49:27.123Z,29.86
2023-06-18T17:51:58.528Z,29.73
2023-06-18T17:54:29.893Z,29.71
2023-06-18T17:57:01.245Z,29.59
2023-06-18T17:59:32.592Z,29.63
2023-06-18T18:02:04.293Z,29.52
2023-06-18T18:04:37.368Z,29.54
2023-06-18T18:07:08.793Z,29.48
2023-06-18T18:09:40.174Z,29.44
2023-06-18T18:12:11.573Z,29.26
2023-06-18T18:14:43.251Z,29.33
2023-06-18T18:17:14.839Z,29.18
2023-06-18T18:19:46.175Z,29.21
2023-06-18T18:22:19.211Z,29.19
2023-06-18T18:24:50.672Z,29.07
2023-06-18T18:27:22.013Z,28.96
2023-06-18T18:29:53.425Z,28.94
2023-06-18T18:32:25.608Z,28.98
2023-06-18T18:34:57.081Z,29.08
2023-06-18T18:37:28.444Z,29.18
2023-06-18T18:39:59.832Z,29.24
2023-06-18T18:42:31.237Z,29.28
2023-06-18T18:45:03.714Z,29.23
2023-06-18T18:47:35.053Z,29.13
2023-06-18T18:50:06.889Z,29.07
2023-06-18T18:52:38.517Z,29.00
2023-06-18T18:55:09.975Z,28.87
2023-06-18T18:57:41.370Z,28.76
2023-06-18T19:00:14.040Z,28.63
2023-06-18T19:02:45.640Z,28.45
2023-06-18T19:05:17.055Z,28.28
2023-06-18T19:07:50.467Z,28.19
2023-06-18T19:10:22.614Z,27.89
2023-06-18T19:12:54.311Z,27.57
2023-06-18T19:15:25.675Z,27.29
2023-06-18T19:17:57.084Z,26.95
2023-06-18T19:20:28.511Z,26.66
2023-06-18T19:22:59.915Z,26.55
2023-06-18T19:25:34.104Z,26.25
2023-06-18T19:28:05.467Z,26.14
2023-06-18T19:30:43.045Z,25.82
2023-06-18T19:33:14.578Z,25.74
2023-06-18T19:35:45.999Z,25.55
2023-06-18T19:38:17.452Z,25.29
2023-06-18T19:40:49.810Z,25.04
2023-06-18T19:43:22.532Z,24.99
2023-06-18T19:45:53.946Z,24.86
2023-06-18T19:48:25.303Z,24.58
2023-06-18T19:50:56.659Z,24.62
2023-06-18T19:53:28.100Z,24.50
2023-06-18T19:55:59.883Z,24.45
2023-06-18T19:58:31.278Z,24.32
2023-06-18T20:01:02.621Z,24.31
2023-06-18T20:03:34.974Z,24.25
2023-06-18T20:06:06.677Z,24.17
2023-06-18T20:08:38.113Z,23.99
2023-06-18T20:11:09.547Z,24.02
2023-06-18T20:13:40.863Z,23.81
2023-06-18T20:16:12.535Z,23.72
2023-06-18T20:18:43.937Z,23.71
2023-06-18T20:21:15.293Z,23.48
2023-06-18T20:23:46.619Z,23.22
2023-06-18T20:26:18.009Z,23.24
2023-06-18T20:28:49.330Z,23.20
2023-06-18T20:31:20.893Z,23.28
2023-06-18T20:33:52.284Z,23.31
2023-06-18T20:36:23.617Z,23.29
2023-06-18T20:38:54.967Z,23.41
2023-06-18T20:41:26.290Z,23.41
2023-06-18T20:43:57.647Z,23.15
2023-06-18T20:46:29.062Z,23.24
2023-06-18T20:49:01.319Z,23.11
2023-06-18T20:51:32.662Z,23.20
2023-06-18T20:54:04.105Z,23.19
2023-06-18T20:56:35.511Z,23.16
2023-06-18T20:59:06.823Z,23.16
2023-06-18T21:01:38.363Z,23.16
2023-06-18T21:04:10.067Z,23.16
2023-06-18T21:06:41.399Z,23.06
2023-06-18T21:09:12.793Z,23.11
2023-06-18T21:11:44.121Z,23.22
2023-06-18T21:14:15.950Z,23.27
2023-06-18T21:16:47.336Z,23.23
2023-06-18T21:19:20.600Z,23.31
2023-06-18T21:21:51.971Z,23.25
2023-06-18T21:24:23.312Z,23.28
2023-06-18T21:26:54.697Z,23.24
2023-06-18T21:29:26.603Z,23.16
2023-06-18T21:31:59.234Z,23.16
2023-06-18T21:34:30.551Z,23.09
2023-06-18T21:37:02.200Z,23.08
2023-06-18T21:39:33.602Z,23.09
2023-06-18T21:42:05.283Z,23.13
2023-06-18T21:44:36.816Z,23.00
2023-06-18T21:47:08.203Z,23.09
2023-06-18T21:49:39.777Z,23.09
2023-06-18T21:52:11.079Z,22.97
2023-06-18T21:54:42.417Z,23.03
2023-06-18T21:57:13.803Z,23.00
2023-06-18T21:59:45.122Z,22.99
2023-06-18T22:02:16.538Z,22.95
2023-06-18T22:04:48.022Z,22.88
2023-06-18T22:07:19.443Z,22.80
2023-06-18T22:09:50.833Z,22.83
2023-06-18T22:12:22.728Z,22.73
2023-06-18T22:14:54.072Z,22.68
2023-06-18T22:17:26.797Z,22.59
2023-06-18T22:19:58.205Z,22.55
2023-06-18T22:22:29.530Z,22.49
2023-06-18T22:25:00.849Z,22.32
2023-06-18T22:27:32.207Z,22.27
2023-06-18T22:30:04.365Z,22.25
2023-06-18T22:32:35.783Z,22.05
2023-06-18T22:35:08.226Z,22.13
2023-06-18T22:37:39.560Z,21.88
2023-06-18T22:40:11.326Z,22.04
2023-06-18T22:42:42.648Z,21.96
2023-06-18T22:45:13.984Z,22.01
2023-06-18T22:47:45.322Z,21.96
2023-06-18T22:50:16.820Z,22.03
2023-06-18T22:52:48.186Z,22.04
2023-06-18T22:55:19.514Z,22.01
2023-06-18T22:57:50.961Z,21.97
2023-06-18T23:00:22.553Z,22.09
2023-06-18T23:02:54.193Z,22.03
2023-06-18T23:05:25.617Z,22.15
2023-06-18T23:07:57.123Z,22.05
2023-06-18T23:10:28.470Z,22.15
2023-06-18T23:12:59.867Z,22.12
2023-06-18T23:15:31.311Z,22.09
2023-06-18T23:18:02.910Z,22.11
2023-06-18T23:20:35.555Z,22.14
2023-06-18T23:23:06.968Z,22.12
2023-06-18T23:25:38.354Z,22.10
2023-06-18T23:28:09.683Z,22.08
2023-06-18T23:30:41.075Z,22.11
2023-06-18T23:33:12.529Z,21.92
2023-06-18T23:35:44.432Z,22.14
2023-06-18T23:38:15.851Z,22.15
2023-06-18T23:40:47.240Z,22.15
2023-06-18T23:43:19.626Z,22.10
2023-06-18T23:45:51.086Z,22.14
2023-06-18T23:48:22.515Z,22.11
2023-06-18T23:50:56.165Z,21.97
2023-06-18T23:53:27.501Z,21.94
2023-06-18T23:55:58.901Z,21.93
2023-06-18T23:58:30.311Z,21.98
